createdAt,value
2017-12-28T00:02:21.758Z,3.10
2017-12-28T00:04:50.073Z,2.80
2017-12-28T00:07:18.394Z,3.50
2017-12-28T00:09:45.989Z,3.75
2017-12-28T00:12:13.525Z,2.97
2017-12-28T00:14:41.040Z,2.70
2017-12-28T00:17:09.488Z,3.22
2017-12-28T00:19:37.044Z,3.08
2017-12-28T00:22:04.646Z,3.42
2017-12-28T00:24:32.960Z,3.30
2017-12-28T00:27:00.490Z,3.53
2017-12-28T00:29:28.047Z,2.97
2017-12-28T00:31:56.318Z,3.30
2017-12-28T00:34:24.637Z,2.92
2017-12-28T00:36:52.964Z,3.10
2017-12-28T00:39:20.544Z,3.65
2017-12-28T00:41:48.085Z,3.53
2017-12-28T00:44:15.636Z,3.00
2017-12-28T00:46:43.962Z,3.00
2017-12-28T00:49:11.476Z,3.40
2017-12-28T00:51:39.042Z,3.25
2017-12-28T00:54:06.615Z,3.20
2017-12-28T00:56:34.290Z,3.22
2017-12-28T00:59:02.574Z,2.97
2017-12-28T01:01:30.891Z,3.17
2017-12-28T01:03:59.209Z,3.80
2017-12-28T01:06:27.503Z,3.58
2017-12-28T01:08:55.047Z,3.43
2017-12-28T01:11:22.676Z,3.62
2017-12-28T01:13:50.223Z,3.70
2017-12-28T01:16:17.799Z,3.58
2017-12-28T01:18:46.102Z,3.85
2017-12-28T01:21:14.380Z,3.45
2017-12-28T01:23:41.901Z,3.33
2017-12-28T01:26:09.451Z,3.47
2017-12-28T01:28:36.983Z,3.60
2017-12-28T01:31:04.522Z,3.30
2017-12-28T01:33:32.080Z,3.58
2017-12-28T01:35:59.605Z,4.05
2017-12-28T01:38:27.149Z,4.20
2017-12-28T01:40:54.660Z,3.90
2017-12-28T01:43:23.009Z,4.37
2017-12-28T01:45:50.542Z,4.43
2017-12-28T01:48:18.081Z,4.03
2017-12-28T01:50:45.609Z,4.13
2017-12-28T01:53:13.157Z,4.87
2017-12-28T01:55:40.745Z,4.60
2017-12-28T01:58:08.326Z,4.53
2017-12-28T02:00:35.848Z,4.40
2017-12-28T02:03:03.386Z,4.10
2017-12-28T02:05:30.976Z,4.80
2017-12-28T02:07:58.516Z,5.20
2017-12-28T02:10:26.157Z,4.57
2017-12-28T02:12:54.443Z,5.23
2017-12-28T02:15:22.081Z,4.57
2017-12-28T02:17:49.621Z,4.80
2017-12-28T02:20:17.173Z,4.53
2017-12-28T02:22:44.713Z,4.80
2017-12-28T02:25:12.242Z,4.20
2017-12-28T02:27:40.539Z,4.97
2017-12-28T02:30:08.048Z,4.87
2017-12-28T02:32:35.582Z,4.10
2017-12-28T02:35:03.093Z,4.80
2017-12-28T02:37:30.595Z,4.90
2017-12-28T02:39:58.140Z,4.63
2017-12-28T02:42:25.670Z,4.25
2017-12-28T02:44:53.211Z,4.03
2017-12-28T02:47:20.869Z,4.87
2017-12-28T02:49:48.383Z,3.83
2017-12-28T02:52:15.944Z,4.18
2017-12-28T02:54:44.240Z,3.93
2017-12-28T02:57:11.766Z,4.37
2017-12-28T02:59:40.052Z,3.67
2017-12-28T03:02:07.658Z,4.05
2017-12-28T03:04:35.188Z,4.07
2017-12-28T03:07:02.918Z,3.60
2017-12-28T03:09:30.567Z,4.00
2017-12-28T03:11:58.883Z,3.83
2017-12-28T03:14:27.165Z,4.40
2017-12-28T03:16:55.489Z,3.92
2017-12-28T03:19:23.032Z,3.83
2017-12-28T03:21:50.556Z,3.77
2017-12-28T03:24:18.081Z,3.80
2017-12-28T03:26:45.664Z,3.27
2017-12-28T03:29:13.946Z,4.00
2017-12-28T03:31:41.458Z,3.57
2017-12-28T03:34:09.757Z,3.80
2017-12-28T03:36:37.279Z,3.43
2017-12-28T03:39:04.851Z,3.87
2017-12-28T03:41:32.401Z,3.80
2017-12-28T03:44:00.036Z,3.27
2017-12-28T03:46:27.586Z,3.30
2017-12-28T03:48:55.886Z,4.07
2017-12-28T03:51:23.409Z,3.50
2017-12-28T03:53:50.989Z,3.80
2017-12-28T03:56:18.525Z,3.40
2017-12-28T03:58:46.088Z,3.50
2017-12-28T04:01:14.376Z,3.27
2017-12-28T04:03:41.895Z,3.13
2017-12-28T04:06:10.216Z,3.90
2017-12-28T04:08:37.737Z,3.90
2017-12-28T04:11:05.434Z,3.37
2017-12-28T04:13:33.070Z,3.73
2017-12-28T04:16:00.597Z,3.37
2017-12-28T04:18:28.179Z,2.63
2017-12-28T04:20:55.723Z,3.30
2017-12-28T04:23:23.281Z,3.33
2017-12-28T04:25:50.989Z,3.40
2017-12-28T04:28:18.562Z,3.50
2017-12-28T04:30:46.858Z,3.30
2017-12-28T04:33:14.397Z,3.40
2017-12-28T04:35:42.057Z,3.13
2017-12-28T04:38:10.358Z,3.30
2017-12-28T04:40:37.873Z,3.37
2017-12-28T04:43:06.200Z,3.10
2017-12-28T04:45:33.711Z,3.20
2017-12-28T04:48:01.256Z,3.90
2017-12-28T04:50:28.778Z,3.40
2017-12-28T04:52:56.316Z,3.70
2017-12-28T04:55:23.835Z,4.20
2017-12-28T04:57:52.186Z,4.10
2017-12-28T05:00:19.733Z,3.70
2017-12-28T05:02:48.085Z,4.10
2017-12-28T05:05:15.623Z,4.47
2017-12-28T05:07:43.142Z,9.63
2017-12-28T05:10:10.695Z,4.40
2017-12-28T05:12:38.257Z,4.03
2017-12-28T05:15:05.948Z,4.70
2017-12-28T05:17:33.484Z,3.83
2017-12-28T05:20:01.009Z,4.50
2017-12-28T05:22:29.312Z,4.50
2017-12-28T05:24:56.858Z,5.37
2017-12-28T05:27:24.370Z,4.63
2017-12-28T05:29:52.697Z,5.83
2017-12-28T05:32:21.323Z,5.20
2017-12-28T05:34:49.630Z,4.10
2017-12-28T05:37:17.233Z,6.00
2017-12-28T05:39:44.801Z,4.40
2017-12-28T05:42:12.331Z,4.47
2017-12-28T05:44:39.843Z,4.73
2017-12-28T05:47:07.409Z,4.70
2017-12-28T05:49:35.732Z,4.40
2017-12-28T05:52:03.281Z,4.70
2017-12-28T05:54:30.843Z,4.60
2017-12-28T05:56:58.357Z,5.67
2017-12-28T05:59:25.918Z,4.62
2017-12-28T06:01:53.517Z,4.00
2017-12-28T06:04:21.069Z,3.80
2017-12-28T06:06:48.614Z,3.27
2017-12-28T06:09:16.224Z,3.77
2017-12-28T06:11:44.630Z,4.00
2017-12-28T06:14:12.911Z,4.20
2017-12-28T06:16:40.453Z,3.73
2017-12-28T06:19:08.020Z,3.87
2017-12-28T06:21:36.306Z,5.20
2017-12-28T06:24:03.949Z,4.07
2017-12-28T06:26:31.473Z,3.70
2017-12-28T06:28:58.995Z,4.40
2017-12-28T06:31:26.537Z,3.70
2017-12-28T06:33:55.184Z,3.40
2017-12-28T06:36:22.760Z,3.23
2017-12-28T06:38:50.499Z,4.20
2017-12-28T06:41:18.879Z,2.83
2017-12-28T06:43:46.433Z,3.13
2017-12-28T06:46:13.964Z,3.22
2017-12-28T06:48:41.530Z,3.00
2017-12-28T06:51:09.068Z,3.20
2017-12-28T06:53:36.645Z,4.30
2017-12-28T06:56:04.946Z,3.80
2017-12-28T06:58:32.505Z,3.17
2017-12-28T07:01:00.111Z,3.27
2017-12-28T07:03:27.681Z,2.70
2017-12-28T07:05:56.116Z,2.03
2017-12-28T07:08:23.820Z,2.60
2017-12-28T07:10:51.333Z,2.10
2017-12-28T07:13:18.866Z,2.10
2017-12-28T07:15:46.429Z,2.00
2017-12-28T07:18:14.781Z,2.07
2017-12-28T07:20:43.091Z,2.40
2017-12-28T07:23:10.635Z,1.80
2017-12-28T07:25:38.189Z,3.13
2017-12-28T07:28:06.812Z,2.67
2017-12-28T07:30:34.438Z,2.23
2017-12-28T07:33:02.065Z,1.90
2017-12-28T07:35:29.586Z,1.55
2017-12-28T07:37:57.166Z,2.00
2017-12-28T07:40:24.712Z,1.47
2017-12-28T07:42:52.435Z,1.70
2017-12-28T07:45:20.009Z,1.80
2017-12-28T07:47:47.564Z,2.50
2017-12-28T07:50:15.121Z,1.50
2017-12-28T07:52:43.528Z,1.27
2017-12-28T07:55:11.847Z,1.40
2017-12-28T07:57:39.406Z,2.37
2017-12-28T08:00:07.851Z,1.90
2017-12-28T08:02:36.301Z,1.50
2017-12-28T08:05:03.820Z,1.40
2017-12-28T08:07:31.391Z,2.40
2017-12-28T08:09:58.971Z,1.30
2017-12-28T08:12:26.622Z,1.80
2017-12-28T08:14:54.771Z,1.57
2017-12-28T08:17:23.082Z,1.40
2017-12-28T08:19:50.616Z,1.10
2017-12-28T08:22:18.145Z,1.70
2017-12-28T08:24:46.527Z,2.10
2017-12-28T08:27:14.135Z,1.63
2017-12-28T08:29:41.753Z,1.90
2017-12-28T08:32:09.285Z,1.60
2017-12-28T08:34:36.923Z,1.30
2017-12-28T08:37:04.486Z,1.13
2017-12-28T08:39:32.031Z,1.55
2017-12-28T08:41:59.571Z,1.25
2017-12-28T08:44:27.879Z,1.40
2017-12-28T08:46:55.399Z,1.52
2017-12-28T08:49:22.998Z,1.10
2017-12-28T08:51:50.580Z,1.60
2017-12-28T08:54:18.222Z,1.30
2017-12-28T08:56:45.761Z,1.08
2017-12-28T08:59:14.058Z,1.50
2017-12-28T09:01:41.776Z,1.23
2017-12-28T09:04:09.322Z,1.45
2017-12-28T09:06:37.709Z,1.30
2017-12-28T09:09:05.256Z,1.67
2017-12-28T09:11:32.817Z,1.50
2017-12-28T09:14:00.369Z,2.15
2017-12-28T09:16:27.904Z,1.67
2017-12-28T09:18:55.537Z,1.77
2017-12-28T09:21:23.095Z,1.87
2017-12-28T09:23:50.744Z,1.47
2017-12-28T09:26:19.268Z,1.57
2017-12-28T09:28:46.841Z,1.40
2017-12-28T09:31:15.134Z,2.00
2017-12-28T09:33:42.722Z,1.90
2017-12-28T09:36:11.054Z,2.57
2017-12-28T09:38:38.603Z,1.50
2017-12-28T09:41:06.233Z,2.53
2017-12-28T09:43:33.868Z,1.73
2017-12-28T09:46:01.429Z,1.50
2017-12-28T09:48:28.952Z,2.10
2017-12-28T09:50:56.514Z,2.07
2017-12-28T09:53:24.035Z,1.58
2017-12-28T09:55:52.402Z,2.10
2017-12-28T09:58:19.939Z,1.77
2017-12-28T10:00:47.488Z,1.27
2017-12-28T10:03:15.091Z,1.37
2017-12-28T10:05:42.645Z,2.57
2017-12-28T10:08:10.201Z,1.60
2017-12-28T10:10:37.729Z,1.57
2017-12-28T10:13:06.064Z,3.70
2017-12-28T10:15:33.607Z,1.90
2017-12-28T10:18:01.148Z,1.90
2017-12-28T10:20:28.690Z,1.37
2017-12-28T10:22:56.207Z,1.40
2017-12-28T10:25:23.760Z,1.45
2017-12-28T10:27:52.117Z,2.72
2017-12-28T10:30:20.492Z,2.00
2017-12-28T10:32:48.123Z,1.77
2017-12-28T10:35:15.685Z,1.80
2017-12-28T10:37:44.001Z,1.80
2017-12-28T10:40:11.539Z,1.70
2017-12-28T10:42:39.069Z,2.13
2017-12-28T10:45:07.490Z,3.87
2017-12-28T10:47:35.018Z,3.10
2017-12-28T10:50:03.319Z,2.20
2017-12-28T10:52:30.855Z,1.55
2017-12-28T10:54:58.445Z,2.30
2017-12-28T10:57:25.970Z,2.57
2017-12-28T10:59:53.551Z,2.03
2017-12-28T11:02:21.071Z,3.00
2017-12-28T11:04:48.657Z,2.17
2017-12-28T11:07:16.925Z,2.07
2017-12-28T11:09:44.507Z,1.80
2017-12-28T11:12:12.164Z,2.10
2017-12-28T11:14:39.760Z,2.73
2017-12-28T11:17:07.353Z,1.70
2017-12-28T11:19:35.694Z,2.10
2017-12-28T11:22:04.027Z,1.95
2017-12-28T11:24:31.861Z,2.30
2017-12-28T11:26:59.468Z,1.90
2017-12-28T11:29:27.023Z,2.60
2017-12-28T11:31:54.598Z,2.43
2017-12-28T11:34:22.136Z,2.30
2017-12-28T11:36:49.692Z,3.00
2017-12-28T11:39:18.006Z,3.28
2017-12-28T11:41:45.566Z,3.08
2017-12-28T11:44:13.185Z,2.60
2017-12-28T11:46:40.757Z,2.90
2017-12-28T11:49:08.383Z,3.03
2017-12-28T11:51:42.180Z,2.42
2017-12-28T11:54:09.979Z,2.67
2017-12-28T11:56:39.301Z,2.70
2017-12-28T11:59:12.486Z,2.42
2017-12-28T12:04:44.023Z,1.80
2017-12-28T12:07:12.383Z,3.27
2017-12-28T12:09:46.253Z,2.40
2017-12-28T12:12:14.564Z,2.80
2017-12-28T12:14:42.848Z,2.53
2017-12-28T12:17:11.202Z,3.20
2017-12-28T12:19:38.829Z,2.80
2017-12-28T12:22:06.518Z,3.60
2017-12-28T12:24:34.071Z,2.63
2017-12-28T12:27:01.819Z,2.80
2017-12-28T12:29:29.395Z,3.30
2017-12-28T12:31:57.012Z,3.85
2017-12-28T12:34:24.582Z,3.07
2017-12-28T12:36:52.127Z,3.10
2017-12-28T12:39:19.685Z,3.55
2017-12-28T12:41:47.265Z,4.03
2017-12-28T12:44:15.577Z,4.50
2017-12-28T12:46:43.906Z,3.55
2017-12-28T12:49:11.529Z,4.75
2017-12-28T12:51:39.820Z,4.50
2017-12-28T12:54:07.465Z,5.53
2017-12-28T12:56:35.778Z,5.50
2017-12-28T12:59:03.337Z,5.32
2017-12-28T13:01:30.877Z,5.37
2017-12-28T13:03:58.410Z,4.90
2017-12-28T13:06:26.753Z,5.15
2017-12-28T13:08:54.390Z,13.93
2017-12-28T13:11:21.955Z,5.70
2017-12-28T13:13:49.523Z,7.37
2017-12-28T13:16:17.100Z,6.40
2017-12-28T13:18:45.461Z,5.87
2017-12-28T13:21:13.001Z,5.60
2017-12-28T13:23:40.533Z,5.65
2017-12-28T13:26:08.115Z,5.50
2017-12-28T13:28:35.681Z,4.75
2017-12-28T13:31:03.284Z,5.60
2017-12-28T13:33:30.936Z,5.60
2017-12-28T13:35:58.610Z,5.05
2017-12-28T13:38:26.938Z,5.23
2017-12-28T13:40:54.489Z,7.85
2017-12-28T13:43:22.026Z,5.72
2017-12-28T13:45:49.586Z,4.60
2017-12-28T13:48:17.189Z,5.50
2017-12-28T13:50:44.744Z,5.85
2017-12-28T13:53:12.299Z,5.57
2017-12-28T13:55:40.627Z,6.97
2017-12-28T13:58:08.229Z,5.83
2017-12-28T14:00:35.881Z,6.12
2017-12-28T14:03:03.571Z,5.43
2017-12-28T14:05:31.121Z,6.10
2017-12-28T14:07:58.666Z,6.17
2017-12-28T14:10:26.223Z,5.47
2017-12-28T14:12:54.764Z,6.80
2017-12-28T14:15:23.128Z,6.67
2017-12-28T14:17:51.452Z,6.50
2017-12-28T14:20:19.002Z,6.83
2017-12-28T14:22:46.562Z,6.90
2017-12-28T14:25:14.096Z,6.40
2017-12-28T14:27:41.654Z,5.93
2017-12-28T14:30:09.177Z,5.97
2017-12-28T14:32:36.772Z,6.10
2017-12-28T14:35:04.406Z,9.32
2017-12-28T14:37:32.734Z,6.35
2017-12-28T14:40:00.360Z,5.10
2017-12-28T14:42:27.949Z,4.50
2017-12-28T14:44:55.478Z,5.45
2017-12-28T14:47:23.040Z,5.83
2017-12-28T14:49:50.586Z,5.90
2017-12-28T14:52:19.088Z,5.55
2017-12-28T14:54:46.637Z,4.78
2017-12-28T14:57:14.194Z,13.57
2017-12-28T14:59:41.732Z,6.97
2017-12-28T15:02:10.150Z,7.90
2017-12-28T15:04:38.712Z,8.80
2017-12-28T15:07:06.284Z,6.40
2017-12-28T15:09:33.835Z,7.40
2017-12-28T15:12:01.456Z,6.40
2017-12-28T15:14:28.992Z,5.70
2017-12-28T15:16:56.659Z,12.70
2017-12-28T15:19:24.354Z,5.25
2017-12-28T15:21:52.653Z,5.40
2017-12-28T15:24:20.228Z,6.10
2017-12-28T15:26:47.745Z,5.12
2017-12-28T15:29:15.370Z,5.55
2017-12-28T15:31:43.897Z,5.60
2017-12-28T15:34:11.431Z,6.57
2017-12-28T15:36:39.711Z,5.62
2017-12-28T15:39:07.426Z,5.40
2017-12-28T15:41:34.960Z,4.78
2017-12-28T15:44:02.510Z,5.45
2017-12-28T15:46:30.033Z,4.90
2017-12-28T15:48:57.680Z,5.12
2017-12-28T15:51:25.197Z,5.90
2017-12-28T15:53:52.762Z,5.57
2017-12-28T15:56:20.306Z,5.90
2017-12-28T15:58:47.855Z,12.88
2017-12-28T16:01:16.192Z,5.93
2017-12-28T16:03:43.740Z,6.53
2017-12-28T16:06:11.293Z,6.37
2017-12-28T16:08:39.595Z,6.00
2017-12-28T16:11:07.208Z,6.50
2017-12-28T16:13:34.726Z,5.82
2017-12-28T16:16:03.059Z,5.97
2017-12-28T16:18:30.627Z,5.28
2017-12-28T16:20:58.904Z,5.85
2017-12-28T16:23:26.450Z,6.07
2017-12-28T16:25:54.014Z,9.43
2017-12-28T16:28:21.545Z,6.40
2017-12-28T16:30:49.304Z,6.50
2017-12-28T16:33:16.868Z,6.68
2017-12-28T16:35:44.433Z,5.87
2017-12-28T16:38:11.991Z,6.22
2017-12-28T16:40:39.588Z,39.75
2017-12-28T16:43:07.193Z,37.67
2017-12-28T16:45:34.729Z,10.90
2017-12-28T16:48:03.117Z,10.90
2017-12-28T16:50:30.721Z,9.32
2017-12-28T16:52:58.264Z,6.50
2017-12-28T16:55:25.836Z,5.87
2017-12-28T16:57:53.412Z,6.32
2017-12-28T17:00:20.954Z,7.78
2017-12-28T17:02:49.505Z,7.12
2017-12-28T17:05:17.267Z,6.20
2017-12-28T17:07:45.017Z,6.55
2017-12-28T17:10:12.608Z,6.82
2017-12-28T17:12:40.297Z,6.62
2017-12-28T17:15:08.596Z,6.70
2017-12-28T17:17:37.080Z,6.28
2017-12-28T17:20:05.419Z,6.37
2017-12-28T17:22:33.009Z,7.35
2017-12-28T17:25:01.809Z,8.10
2017-12-28T17:27:29.560Z,8.00
2017-12-28T17:29:57.925Z,7.20
2017-12-28T17:32:25.459Z,6.35
2017-12-28T17:34:53.013Z,7.30
2017-12-28T17:37:20.673Z,6.35
2017-12-28T17:39:48.258Z,7.15
2017-12-28T17:42:15.827Z,7.05
2017-12-28T17:44:44.129Z,6.35
2017-12-28T17:47:11.756Z,7.10
2017-12-28T17:49:39.364Z,6.03
2017-12-28T17:52:07.052Z,6.78
2017-12-28T17:54:35.387Z,7.62
2017-12-28T17:57:02.952Z,7.00
2017-12-28T17:59:30.509Z,7.45
2017-12-28T18:01:58.076Z,7.53
2017-12-28T18:04:25.753Z,7.68
2017-12-28T18:06:53.311Z,7.57
2017-12-28T18:09:20.912Z,6.15
2017-12-28T18:11:49.208Z,6.35
2017-12-28T18:14:16.909Z,6.47
2017-12-28T18:16:44.485Z,6.05
2017-12-28T18:19:12.161Z,6.10
2017-12-28T18:21:39.742Z,6.70
2017-12-28T18:24:08.109Z,7.00
2017-12-28T18:26:35.792Z,5.80
2017-12-28T18:29:03.353Z,6.07
2017-12-28T18:31:30.884Z,6.37
2017-12-28T18:33:59.433Z,6.30
2017-12-28T18:36:27.066Z,6.62
2017-12-28T18:38:54.641Z,20.42
2017-12-28T18:41:22.274Z,10.30
2017-12-28T18:43:49.929Z,6.75
2017-12-28T18:46:18.389Z,6.90
2017-12-28T18:48:46.867Z,6.97
2017-12-28T18:51:15.176Z,8.70
2017-12-28T18:53:43.675Z,7.00
2017-12-28T18:56:11.215Z,7.95
2017-12-28T18:58:38.746Z,8.13
2017-12-28T19:01:07.089Z,7.45
2017-12-28T19:03:35.433Z,8.05
2017-12-28T19:06:03.127Z,8.07
2017-12-28T19:08:30.683Z,7.30
2017-12-28T19:10:59.078Z,7.97
2017-12-28T19:13:26.674Z,9.38
2017-12-28T19:15:54.512Z,9.20
2017-12-28T19:18:22.847Z,9.10
2017-12-28T19:20:50.465Z,10.68
2017-12-28T19:23:18.877Z,10.63
2017-12-28T19:25:46.699Z,10.90
2017-12-28T19:28:15.040Z,10.48
2017-12-28T19:30:42.601Z,10.68
2017-12-28T19:33:10.212Z,11.07
2017-12-28T19:35:37.790Z,11.32
2017-12-28T19:38:05.408Z,10.82
2017-12-28T19:40:34.035Z,10.10
2017-12-28T19:43:01.545Z,9.75
2017-12-28T19:45:29.875Z,9.98
2017-12-28T19:47:58.168Z,8.88
2017-12-28T19:50:26.505Z,8.48
2017-12-28T19:52:54.103Z,8.63
2017-12-28T19:55:21.779Z,8.20
2017-12-28T19:57:49.383Z,9.18
2017-12-28T20:00:17.697Z,7.93
2017-12-28T20:02:45.246Z,8.23
2017-12-28T20:05:12.821Z,9.35
2017-12-28T20:07:40.358Z,8.45
2017-12-28T20:10:08.012Z,13.27
2017-12-28T20:12:35.774Z,8.40
2017-12-28T20:15:03.312Z,7.32
2017-12-28T20:17:30.893Z,7.85
2017-12-28T20:19:58.446Z,8.80
2017-12-28T20:22:26.140Z,8.77
2017-12-28T20:24:53.691Z,8.43
2017-12-28T20:27:21.336Z,8.13
2017-12-28T20:29:48.858Z,9.10
2017-12-28T20:32:16.380Z,8.20
2017-12-28T20:34:44.729Z,8.80
2017-12-28T20:37:13.063Z,7.70
2017-12-28T20:39:41.398Z,8.60
2017-12-28T20:42:09.004Z,8.93
2017-12-28T20:44:36.549Z,7.50
2017-12-28T20:47:04.863Z,8.00
2017-12-28T20:49:32.430Z,7.82
2017-12-28T20:52:00.716Z,8.02
2017-12-28T20:54:28.255Z,8.85
2017-12-28T20:56:55.793Z,7.62
2017-12-28T20:59:23.484Z,7.90
2017-12-28T21:01:51.006Z,7.50
2017-12-28T21:04:18.704Z,7.40
2017-12-28T21:06:46.256Z,7.90
2017-12-28T21:09:13.801Z,7.57
2017-12-28T21:11:41.351Z,9.32
2017-12-28T21:14:08.886Z,8.50
2017-12-28T21:16:37.219Z,7.85
2017-12-28T21:19:04.778Z,7.60
2017-12-28T21:21:32.344Z,8.70
2017-12-28T21:24:01.468Z,8.80
2017-12-28T21:26:29.765Z,8.25
2017-12-28T21:28:57.317Z,8.35
2017-12-28T21:31:25.634Z,8.23
2017-12-28T21:33:53.216Z,7.60
2017-12-28T21:36:20.779Z,7.40
2017-12-28T21:38:48.419Z,7.60
2017-12-28T21:41:16.897Z,7.80
2017-12-28T21:43:44.465Z,7.72
2017-12-28T21:46:11.983Z,7.37
2017-12-28T21:48:39.539Z,9.98
2017-12-28T21:51:07.076Z,6.78
2017-12-28T21:53:35.549Z,7.65
2017-12-28T21:56:03.833Z,7.75
2017-12-28T21:58:32.141Z,8.77
2017-12-28T22:00:59.666Z,7.70
2017-12-28T22:03:28.030Z,7.30
2017-12-28T22:05:56.317Z,7.10
2017-12-28T22:08:24.633Z,7.45
2017-12-28T22:10:52.175Z,7.70
2017-12-28T22:13:19.714Z,7.30
2017-12-28T22:15:48.036Z,7.40
2017-12-28T22:18:15.599Z,7.25
2017-12-28T22:20:43.336Z,7.15
2017-12-28T22:23:10.875Z,7.75
2017-12-28T22:25:38.427Z,6.57
2017-12-28T22:28:06.743Z,6.90
2017-12-28T22:30:34.287Z,7.07
2017-12-28T22:33:01.817Z,6.80
2017-12-28T22:35:30.120Z,8.30
2017-12-28T22:37:57.664Z,6.60
2017-12-28T22:40:25.202Z,6.85
2017-12-28T22:42:53.504Z,6.95
2017-12-28T22:45:21.030Z,7.30
2017-12-28T22:47:49.321Z,6.62
2017-12-28T22:50:17.021Z,6.57
2017-12-28T22:52:44.540Z,7.35
2017-12-28T22:55:12.085Z,7.18
2017-12-28T22:57:40.361Z,6.68
2017-12-28T23:00:08.795Z,7.30
2017-12-28T23:02:37.318Z,6.40
2017-12-28T23:05:05.624Z,6.07
2017-12-28T23:07:33.212Z,6.70
2017-12-28T23:10:00.739Z,7.50
2017-12-28T23:12:28.299Z,6.22
2017-12-28T23:14:55.897Z,6.43
2017-12-28T23:17:23.430Z,7.10
2017-12-28T23:19:50.957Z,7.07
2017-12-28T23:22:18.467Z,5.78
2017-12-28T23:24:46.025Z,6.30
2017-12-28T23:27:13.623Z,7.30
2017-12-28T23:29:41.909Z,7.25
2017-12-28T23:32:09.459Z,6.10
2017-12-28T23:34:37.742Z,7.00
2017-12-28T23:37:06.031Z,6.57
2017-12-28T23:39:33.589Z,6.80
2017-12-28T23:42:01.110Z,6.40
2017-12-28T23:44:29.438Z,5.93
2017-12-28T23:46:56.959Z,6.07
2017-12-28T23:49:25.271Z,5.78
2017-12-28T23:51:52.777Z,5.40
2017-12-28T23:54:21.100Z,6.68
2017-12-28T23:56:48.639Z,6.35
2017-12-28T23:59:16.215Z,4.95
